createdAt,value
2023-04-14T00:01:29.732Z,6.66
2023-04-14T00:02:30.568Z,6.66
2023-04-14T00:03:30.530Z,6.62
2023-04-14T00:04:30.342Z,6.59
2023-04-14T00:05:30.185Z,6.58
2023-04-14T00:06:31.047Z,6.64
2023-04-14T00:07:30.072Z,6.66
2023-04-14T00:08:29.974Z,6.66
2023-04-14T00:09:29.957Z,6.66
2023-04-14T00:47:07.988Z,6.74
2023-04-14T00:48:08.885Z,6.73
2023-04-14T00:49:08.829Z,6.73
2023-04-14T00:50:08.779Z,6.74
2023-04-14T00:51:08.691Z,6.76
2023-04-14T00:52:08.639Z,6.77
2023-04-14T00:53:08.543Z,6.76
2023-04-14T00:54:08.513Z,6.76
2023-04-14T00:55:08.474Z,6.77
2023-04-14T00:56:08.354Z,6.77
2023-04-14T00:57:08.311Z,6.77
2023-04-14T00:58:08.250Z,6.77
2023-04-14T00:59:10.531Z,6.79
2023-04-14T01:00:08.122Z,6.77
2023-04-14T01:01:08.078Z,6.76
2023-04-14T01:02:08.085Z,6.76
2023-04-14T01:03:08.107Z,6.76
2023-04-14T01:04:07.984Z,6.74
2023-04-14T01:05:08.019Z,6.74
2023-04-14T01:06:07.720Z,6.73
2023-04-14T01:07:07.676Z,6.77
2023-04-14T01:08:07.636Z,6.76
2023-04-14T01:09:07.556Z,6.76
2023-04-14T01:10:07.515Z,6.79
2023-04-14T01:11:08.191Z,6.79
2023-04-14T01:12:07.340Z,6.77
2023-04-14T01:13:07.284Z,6.77
2023-04-14T01:14:07.195Z,6.76
2023-04-14T01:15:07.175Z,6.77
2023-04-14T01:16:07.125Z,6.74
2023-04-14T01:18:46.057Z,6.69
2023-04-14T01:19:47.029Z,6.62
2023-04-14T01:20:46.930Z,6.59
2023-04-14T01:21:46.871Z,6.56
2023-04-14T01:22:46.783Z,6.54
2023-04-14T01:23:46.769Z,6.52
2023-04-14T01:24:46.693Z,6.48
2023-04-14T01:25:46.613Z,6.48
2023-04-14T01:26:46.550Z,6.46
2023-04-14T01:27:47.807Z,6.46
2023-04-14T01:28:46.428Z,6.44
2023-04-14T01:29:46.456Z,6.46
2023-04-14T01:30:46.303Z,6.48
2023-04-14T01:31:46.259Z,6.49
2023-04-14T01:32:46.200Z,6.51
2023-04-14T01:33:46.124Z,6.52
2023-04-14T01:34:47.286Z,6.55
2023-04-14T01:35:45.998Z,6.55
2023-04-14T01:36:45.895Z,6.56
2023-04-14T01:37:45.909Z,6.56
2023-04-14T01:38:45.756Z,6.61
2023-04-14T01:39:45.693Z,6.64
2023-04-14T01:40:45.675Z,6.66
2023-04-14T01:41:45.638Z,6.67
2023-04-14T01:42:45.511Z,6.67
2023-04-14T01:43:45.443Z,6.67
2023-04-14T01:44:45.422Z,6.69
2023-04-14T01:45:45.378Z,6.70
2023-04-14T01:46:45.270Z,6.69
2023-04-14T01:47:45.332Z,6.67
2023-04-14T01:48:45.148Z,6.67
2023-04-14T01:49:45.129Z,6.62
2023-04-14T01:50:45.021Z,6.61
2023-04-14T01:51:44.973Z,6.62
2023-04-14T01:52:44.887Z,6.64
2023-04-14T01:55:24.026Z,6.66
2023-04-14T01:56:24.938Z,6.67
2023-04-14T01:57:24.868Z,6.69
2023-04-14T01:58:24.781Z,6.69
2023-04-14T01:59:24.744Z,6.69
2023-04-14T02:00:24.685Z,6.70
2023-04-14T02:01:24.647Z,6.71
2023-04-14T02:02:24.714Z,6.71
2023-04-14T02:03:24.618Z,6.71
2023-04-14T02:04:24.456Z,6.71
2023-04-14T02:05:24.363Z,6.76
2023-04-14T02:06:24.303Z,6.74
2023-04-14T02:07:24.213Z,6.74
2023-04-14T02:08:24.178Z,6.73
2023-04-14T02:09:24.140Z,6.73
2023-04-14T02:10:24.017Z,6.71
2023-04-14T02:11:23.998Z,6.69
2023-04-14T02:12:23.955Z,6.66
2023-04-14T02:13:23.850Z,6.61
2023-04-14T02:14:23.793Z,6.58
2023-04-14T02:15:23.753Z,6.52
2023-04-14T02:16:23.664Z,6.48
2023-04-14T02:17:23.663Z,6.48
2023-04-14T02:18:23.546Z,6.46
2023-04-14T02:19:23.502Z,6.46
2023-04-14T02:20:23.432Z,6.46
2023-04-14T02:21:23.318Z,6.43
2023-04-14T02:22:23.280Z,6.44
2023-04-14T02:23:23.221Z,6.51
2023-04-14T02:24:23.139Z,6.54
2023-04-14T02:25:23.120Z,6.54
2023-04-14T02:26:23.069Z,6.51
2023-04-14T02:27:22.959Z,6.52
2023-04-14T02:28:22.880Z,6.51
2023-04-14T02:29:22.824Z,6.49
2023-04-14T02:30:40.170Z,6.44
2023-04-14T02:31:22.786Z,6.44
2023-04-14T02:32:22.646Z,6.41
2023-04-14T02:33:22.633Z,6.40
2023-04-14T02:34:22.500Z,6.38
2023-04-14T02:35:22.456Z,6.38
2023-04-14T02:36:22.402Z,6.36
2023-04-14T02:37:22.326Z,6.33
2023-04-14T02:38:22.278Z,6.31
2023-04-14T02:39:22.193Z,6.37
2023-04-14T02:40:22.167Z,6.38
2023-04-14T02:41:22.122Z,6.38
2023-04-14T02:42:22.056Z,6.37
2023-04-14T02:43:21.942Z,6.33
2023-04-14T02:44:21.858Z,6.31
2023-04-14T02:45:21.847Z,6.25
2023-04-14T02:46:21.738Z,6.22
2023-04-14T02:47:21.721Z,6.19
2023-04-14T02:48:56.459Z,6.25
2023-04-14T02:49:21.548Z,6.31
2023-04-14T02:50:21.507Z,6.31
2023-04-14T02:51:21.441Z,6.28
2023-04-14T02:52:21.383Z,6.28
2023-04-14T02:53:21.340Z,6.28
2023-04-14T02:54:21.279Z,6.30
2023-04-14T02:55:21.192Z,6.31
2023-04-14T02:56:21.112Z,6.28
2023-04-14T02:57:21.092Z,6.22
2023-04-14T02:58:20.986Z,6.22
2023-04-14T02:59:20.917Z,6.21
2023-04-14T03:00:20.915Z,6.18
2023-04-14T03:01:20.841Z,6.15
2023-04-14T03:02:20.788Z,6.12
2023-04-14T03:03:20.733Z,6.09
2023-04-14T03:04:20.720Z,6.04
2023-04-14T03:05:20.556Z,6.03
2023-04-14T03:06:20.468Z,6.00
2023-04-14T03:07:20.428Z,5.97
2023-04-14T03:08:20.360Z,6.00
2023-04-14T03:09:20.296Z,6.03
2023-04-14T03:10:20.271Z,6.06
2023-04-14T03:11:20.197Z,6.06
2023-04-14T03:12:20.125Z,6.04
2023-04-14T03:13:20.048Z,6.01
2023-04-14T03:14:19.978Z,5.99
2023-04-14T03:15:19.905Z,5.91
2023-04-14T03:16:19.916Z,5.89
2023-04-14T03:17:19.806Z,5.89
2023-04-14T03:18:19.743Z,5.91
2023-04-14T03:19:19.676Z,5.91
2023-04-14T03:20:19.598Z,5.89
2023-04-14T03:21:19.511Z,5.85
2023-04-14T03:22:19.473Z,5.83
2023-04-14T03:23:19.434Z,5.83
2023-04-14T03:24:19.354Z,5.85
2023-04-14T03:25:19.295Z,5.85
2023-04-14T03:26:19.196Z,5.85
2023-04-14T03:27:19.145Z,5.83
2023-04-14T03:28:19.095Z,5.79
2023-04-14T03:29:19.027Z,5.78
2023-04-14T03:30:18.985Z,5.78
2023-04-14T03:31:19.046Z,5.75
2023-04-14T03:32:18.924Z,5.75
2023-04-14T03:33:18.810Z,5.74
2023-04-14T03:34:18.708Z,5.67
2023-04-14T03:35:18.686Z,5.65
2023-04-14T03:36:18.628Z,5.63
2023-04-14T03:37:18.520Z,5.64
2023-04-14T03:38:18.450Z,5.61
2023-04-14T03:39:18.389Z,5.58
2023-04-14T03:40:18.335Z,5.57
2023-04-14T03:41:18.268Z,5.58
2023-04-14T03:42:35.886Z,5.58
2023-04-14T03:43:18.158Z,5.54
2023-04-14T03:44:18.083Z,5.56
2023-04-14T03:45:18.018Z,5.54
2023-04-14T03:46:17.970Z,5.53
2023-04-14T03:47:17.893Z,5.51
2023-04-14T03:48:17.857Z,5.49
2023-04-14T03:49:17.727Z,5.48
2023-04-14T03:50:17.664Z,5.51
2023-04-14T03:51:17.629Z,5.56
2023-04-14T03:52:17.541Z,5.57
2023-04-14T03:53:17.476Z,5.56
2023-04-14T03:54:17.465Z,5.54
2023-04-14T03:55:17.372Z,5.56
2023-04-14T03:56:17.348Z,5.57
2023-04-14T03:57:17.245Z,5.58
2023-04-14T03:58:17.211Z,5.60
2023-04-14T03:59:17.119Z,5.58
2023-04-14T04:00:51.722Z,5.60
2023-04-14T04:01:16.996Z,5.58
2023-04-14T04:02:17.028Z,5.56
2023-04-14T04:03:17.026Z,5.54
2023-04-14T04:04:16.833Z,5.48
2023-04-14T04:05:16.689Z,5.43
2023-04-14T04:06:16.635Z,5.36
2023-04-14T04:07:16.562Z,5.39
2023-04-14T04:08:16.497Z,5.40
2023-04-14T04:09:16.428Z,5.33
2023-04-14T04:10:16.403Z,5.28
2023-04-14T04:11:16.322Z,5.22
2023-04-14T04:12:16.276Z,5.24
2023-04-14T04:13:16.150Z,5.21
2023-04-14T04:14:16.083Z,5.18
2023-04-14T04:15:16.079Z,5.18
2023-04-14T04:16:16.003Z,5.17
2023-04-14T04:17:15.896Z,5.13
2023-04-14T04:18:15.870Z,5.13
2023-04-14T04:19:15.771Z,5.12
2023-04-14T04:20:15.769Z,5.09
2023-04-14T04:21:15.701Z,5.10
2023-04-14T04:22:15.581Z,5.13
2023-04-14T04:23:15.567Z,5.15
2023-04-14T04:24:15.462Z,5.15
2023-04-14T04:25:15.429Z,5.13
2023-04-14T04:26:15.317Z,5.10
2023-04-14T04:27:26.655Z,5.07
2023-04-14T04:28:15.229Z,5.10
2023-04-14T04:29:15.178Z,5.10
2023-04-14T04:30:15.067Z,5.07
2023-04-14T04:31:15.070Z,5.04
2023-04-14T04:32:15.022Z,5.03
2023-04-14T04:33:14.911Z,5.02
2023-04-14T04:34:14.831Z,5.04
2023-04-14T04:35:14.750Z,5.09
2023-04-14T04:36:49.513Z,5.07
2023-04-14T04:37:14.648Z,5.06
2023-04-14T04:38:14.610Z,5.06
2023-04-14T04:39:14.542Z,5.10
2023-04-14T04:40:14.423Z,5.10
2023-04-14T04:41:14.384Z,5.10
2023-04-14T04:42:14.616Z,5.06
2023-04-14T04:43:14.257Z,5.06
2023-04-14T04:44:14.178Z,5.09
2023-04-14T04:45:14.157Z,5.09
2023-04-14T04:46:14.064Z,5.06
2023-04-14T04:47:14.005Z,5.02
2023-04-14T04:48:14.252Z,4.96
2023-04-14T04:49:13.875Z,4.92
2023-04-14T04:50:13.835Z,4.92
2023-04-14T04:51:13.750Z,4.89
2023-04-14T04:52:13.660Z,4.89
2023-04-14T04:53:13.628Z,4.86
2023-04-14T04:54:13.577Z,4.91
2023-04-14T04:55:13.508Z,4.92
2023-04-14T04:56:13.460Z,4.97
2023-04-14T04:57:13.375Z,4.99
2023-04-14T04:58:13.310Z,5.02
2023-04-14T04:59:13.244Z,5.03
2023-04-14T05:00:13.421Z,5.03
2023-04-14T05:01:13.140Z,5.02
2023-04-14T05:02:13.052Z,5.02
2023-04-14T05:03:13.037Z,5.00
2023-04-14T05:04:12.957Z,5.00
2023-04-14T05:05:12.855Z,4.99
2023-04-14T05:06:12.802Z,4.99
2023-04-14T05:07:12.804Z,4.97
2023-04-14T05:08:14.944Z,4.96
2023-04-14T05:09:12.666Z,4.94
2023-04-14T05:10:12.519Z,4.91
2023-04-14T05:11:12.502Z,4.91
2023-04-14T05:12:47.588Z,4.91
2023-04-14T05:13:12.350Z,4.86
2023-04-14T05:14:12.284Z,4.85
2023-04-14T05:15:12.225Z,4.85
2023-04-14T05:16:12.188Z,4.88
2023-04-14T05:17:12.122Z,4.86
2023-04-14T05:18:12.030Z,4.89
2023-04-14T05:19:11.947Z,4.91
2023-04-14T05:20:11.927Z,4.94
2023-04-14T05:21:11.812Z,4.92
2023-04-14T05:22:11.773Z,4.91
2023-04-14T05:23:11.686Z,4.91
2023-04-14T05:24:11.662Z,4.92
2023-04-14T05:25:11.598Z,4.97
2023-04-14T05:26:30.910Z,4.99
2023-04-14T05:27:14.529Z,5.00
2023-04-14T05:28:11.390Z,4.99
2023-04-14T05:29:11.327Z,4.99
2023-04-14T05:30:28.699Z,4.97
2023-04-14T05:31:11.230Z,4.99
2023-04-14T05:32:11.131Z,5.00
2023-04-14T05:33:11.178Z,4.97
2023-04-14T05:34:11.006Z,4.97
2023-04-14T05:35:10.912Z,4.97
2023-04-14T05:36:10.908Z,4.92
2023-04-14T05:37:10.824Z,4.89
2023-04-14T05:38:10.770Z,4.88
2023-04-14T05:39:10.697Z,4.86
2023-04-14T05:40:10.652Z,4.86
2023-04-14T05:41:10.527Z,4.89
2023-04-14T05:42:10.479Z,4.91
2023-04-14T05:43:10.431Z,4.91
2023-04-14T05:44:10.369Z,4.92
2023-04-14T05:45:10.306Z,5.00
2023-04-14T05:46:10.337Z,5.07
2023-04-14T05:47:10.167Z,5.15
2023-04-14T05:48:10.171Z,5.24
2023-04-14T05:49:10.046Z,5.30
2023-04-14T05:50:09.962Z,5.36
2023-04-14T05:51:09.948Z,5.36
2023-04-14T05:52:09.883Z,5.35
2023-04-14T05:53:09.784Z,5.33
2023-04-14T05:54:09.794Z,5.36
2023-04-14T05:55:09.635Z,5.35
2023-04-14T05:56:09.574Z,5.30
2023-04-14T05:57:09.522Z,5.27
2023-04-14T05:58:09.496Z,5.22
2023-04-14T05:59:09.440Z,5.21
2023-04-14T06:00:09.321Z,5.15
2023-04-14T06:01:09.301Z,5.10
2023-04-14T06:02:09.319Z,5.12
2023-04-14T06:03:09.330Z,5.18
2023-04-14T06:04:09.746Z,5.24
2023-04-14T06:05:09.127Z,5.30
2023-04-14T06:06:26.306Z,5.35
2023-04-14T06:07:08.901Z,5.33
2023-04-14T06:08:08.852Z,5.33
2023-04-14T06:09:08.750Z,5.33
2023-04-14T06:10:08.747Z,5.31
2023-04-14T06:11:08.649Z,5.35
2023-04-14T06:12:36.822Z,5.31
2023-04-14T06:13:08.595Z,5.33
2023-04-14T06:14:08.479Z,5.33
2023-04-14T06:15:08.394Z,5.31
2023-04-14T06:16:08.329Z,5.31
2023-04-14T06:17:08.298Z,5.31
2023-04-14T06:18:08.211Z,5.28
2023-04-14T06:19:08.132Z,5.28
2023-04-14T06:20:08.113Z,5.24
2023-04-14T06:21:07.981Z,5.18
2023-04-14T06:22:07.962Z,5.17
2023-04-14T06:23:07.924Z,5.13
2023-04-14T06:24:25.236Z,5.10
2023-04-14T06:25:07.761Z,5.07
2023-04-14T06:26:07.694Z,5.06
2023-04-14T06:27:07.658Z,5.09
2023-04-14T06:28:07.540Z,5.10
2023-04-14T06:29:07.637Z,5.10
2023-04-14T06:30:07.413Z,5.09
2023-04-14T06:31:07.369Z,5.10
2023-04-14T06:32:07.320Z,5.09
2023-04-14T06:33:07.269Z,5.07
2023-04-14T06:34:07.176Z,5.03
2023-04-14T06:35:07.107Z,5.02
2023-04-14T06:36:07.058Z,5.02
2023-04-14T06:37:06.967Z,5.03
2023-04-14T06:38:06.904Z,5.02
2023-04-14T06:39:06.837Z,5.02
2023-04-14T06:40:06.831Z,5.06
2023-04-14T06:41:06.748Z,5.09
2023-04-14T06:42:06.654Z,5.09
2023-04-14T06:43:06.631Z,5.09
2023-04-14T06:44:06.514Z,5.09
2023-04-14T06:45:06.479Z,5.10
2023-04-14T06:46:06.450Z,5.06
2023-04-14T06:47:06.351Z,5.03
2023-04-14T06:48:06.343Z,5.03
2023-04-14T06:49:06.233Z,5.06
2023-04-14T06:50:06.183Z,5.10
2023-04-14T06:51:06.124Z,5.13
2023-04-14T06:52:06.036Z,5.20
2023-04-14T06:53:06.003Z,5.27
2023-04-14T06:54:05.913Z,5.33
2023-04-14T06:55:05.864Z,5.36
2023-04-14T06:56:05.804Z,5.40
2023-04-14T06:57:05.688Z,5.43
2023-04-14T06:58:05.670Z,5.49
2023-04-14T06:59:05.621Z,5.51
2023-04-14T07:00:40.795Z,5.54
2023-04-14T07:01:05.442Z,5.58
2023-04-14T07:02:05.375Z,5.64
2023-04-14T07:03:05.477Z,5.67
2023-04-14T07:04:07.601Z,5.72
2023-04-14T07:05:05.409Z,5.65
2023-04-14T07:06:05.229Z,5.60
2023-04-14T07:07:05.057Z,5.60
2023-04-14T07:08:04.995Z,5.60
2023-04-14T07:09:04.990Z,5.60
2023-04-14T07:10:04.988Z,5.61
2023-04-14T07:11:04.875Z,5.61
2023-04-14T07:12:04.798Z,5.63
2023-04-14T07:13:04.711Z,5.65
2023-04-14T07:14:04.629Z,5.68
2023-04-14T07:15:04.569Z,5.74
2023-04-14T07:16:04.558Z,5.68
2023-04-14T07:17:04.444Z,5.67
2023-04-14T07:18:04.399Z,5.64
2023-04-14T07:19:04.322Z,5.64
2023-04-14T07:20:04.226Z,5.68
2023-04-14T07:21:04.215Z,5.78
2023-04-14T07:22:04.097Z,5.90
2023-04-14T07:23:04.066Z,5.96
2023-04-14T07:24:04.164Z,6.01
2023-04-14T07:25:03.962Z,6.06
2023-04-14T07:26:03.884Z,6.11
2023-04-14T07:27:03.833Z,6.11
2023-04-14T07:28:04.226Z,6.11
2023-04-14T07:29:03.683Z,6.06
2023-04-14T07:30:03.635Z,6.04
2023-04-14T07:31:03.545Z,6.01
2023-04-14T07:32:03.501Z,6.03
2023-04-14T07:33:03.479Z,6.11
2023-04-14T07:34:03.442Z,6.14
2023-04-14T07:35:03.309Z,6.25
2023-04-14T07:36:20.589Z,6.30
2023-04-14T07:37:03.209Z,6.27
2023-04-14T07:38:03.110Z,6.18
2023-04-14T07:39:03.028Z,6.11
2023-04-14T07:40:03.021Z,6.11
2023-04-14T07:41:02.918Z,6.14
2023-04-14T07:42:02.880Z,6.30
2023-04-14T07:43:02.797Z,6.44
2023-04-14T07:44:03.138Z,6.59
2023-04-14T07:45:02.669Z,6.80
2023-04-14T07:46:02.652Z,7.02
2023-04-14T07:47:02.524Z,7.16
2023-04-14T07:48:02.524Z,7.34
2023-04-14T07:49:02.457Z,7.53
2023-04-14T07:50:02.336Z,7.71
2023-04-14T07:51:02.316Z,7.95
2023-04-14T07:52:02.229Z,8.20
2023-04-14T07:53:02.135Z,8.38
2023-04-14T07:54:02.397Z,8.38
2023-04-14T07:55:02.034Z,8.40
2023-04-14T07:56:01.991Z,8.50
2023-04-14T07:57:01.913Z,8.61
2023-04-14T07:58:01.854Z,8.56
2023-04-14T07:59:02.240Z,8.34
2023-04-14T08:00:01.740Z,8.22
2023-04-14T08:01:01.669Z,8.63
2023-04-14T08:02:01.682Z,9.21
2023-04-14T08:03:01.625Z,9.84
2023-04-14T08:04:01.705Z,10.47
2023-04-14T08:05:01.432Z,10.79
2023-04-14T08:06:01.329Z,11.22
2023-04-14T08:07:01.277Z,11.69
2023-04-14T08:08:01.187Z,12.12
2023-04-14T08:09:01.357Z,12.32
2023-04-14T08:10:01.108Z,11.82
2023-04-14T08:11:01.020Z,11.52
2023-04-14T08:12:35.654Z,11.60
2023-04-14T08:13:03.576Z,11.90
2023-04-14T08:14:00.830Z,12.16
2023-04-14T08:15:00.769Z,12.16
2023-04-14T08:16:00.792Z,12.07
2023-04-14T08:17:00.651Z,11.90
2023-04-14T08:18:00.593Z,12.05
2023-04-14T08:19:00.773Z,12.46
2023-04-14T08:20:00.453Z,12.96
2023-04-14T08:21:00.380Z,13.41
2023-04-14T08:22:00.299Z,13.38
2023-04-14T08:23:00.263Z,13.20
2023-04-14T08:24:00.204Z,13.07
2023-04-14T08:25:00.137Z,13.01
2023-04-14T08:26:00.111Z,13.04
2023-04-14T08:27:00.037Z,13.28
2023-04-14T08:27:59.964Z,13.46
2023-04-14T08:29:00.094Z,13.38
2023-04-14T08:30:17.181Z,13.29
2023-04-14T08:30:59.784Z,13.33
2023-04-14T08:31:59.767Z,13.33
2023-04-14T08:32:59.692Z,13.45
2023-04-14T08:33:59.667Z,13.59
2023-04-14T08:35:39.581Z,13.51
2023-04-14T08:36:00.585Z,13.60
2023-04-14T08:36:59.352Z,13.30
2023-04-14T08:37:59.308Z,12.89
2023-04-14T08:38:59.511Z,12.71
2023-04-14T08:39:59.191Z,12.71
2023-04-14T08:40:59.145Z,12.67
2023-04-14T08:41:59.198Z,12.46
2023-04-14T08:42:59.020Z,12.50
2023-04-14T08:43:58.911Z,12.70
2023-04-14T08:44:58.888Z,12.71
2023-04-14T08:45:58.818Z,12.65
2023-04-14T08:46:58.744Z,12.70
2023-04-14T08:47:58.741Z,12.74
2023-04-14T08:48:58.856Z,12.85
2023-04-14T08:49:58.554Z,12.95
2023-04-14T08:50:58.471Z,13.05
2023-04-14T08:51:58.458Z,12.92
2023-04-14T08:52:58.356Z,12.87
2023-04-14T08:53:58.343Z,12.93
2023-04-14T08:54:58.268Z,12.79
2023-04-14T08:55:58.618Z,12.83
2023-04-14T08:56:58.117Z,12.87
2023-04-14T08:57:58.056Z,12.79
2023-04-14T08:58:58.011Z,12.71
2023-04-14T08:59:57.998Z,12.74
2023-04-14T09:00:57.883Z,12.79
2023-04-14T09:01:57.986Z,12.72
2023-04-14T09:02:57.920Z,12.79
2023-04-14T09:03:58.167Z,12.87
2023-04-14T09:04:57.685Z,12.95
2023-04-14T09:05:57.574Z,13.15
2023-04-14T09:06:57.496Z,13.23
2023-04-14T09:07:57.467Z,13.52
2023-04-14T09:08:57.419Z,13.75
2023-04-14T09:09:57.290Z,13.82
2023-04-14T09:10:57.232Z,13.78
2023-04-14T09:11:57.229Z,13.67
2023-04-14T09:12:57.098Z,13.79
2023-04-14T09:13:57.069Z,13.88
2023-04-14T09:14:57.003Z,13.99
2023-04-14T09:15:56.973Z,14.03
2023-04-14T09:16:56.906Z,14.29
2023-04-14T09:17:56.895Z,14.24
2023-04-14T09:18:56.724Z,14.54
2023-04-14T09:20:38.298Z,14.65
2023-04-14T09:21:50.041Z,14.60
2023-04-14T09:21:59.161Z,14.54
2023-04-14T09:22:56.481Z,14.47
2023-04-14T09:23:56.417Z,14.33
2023-04-14T09:24:56.408Z,14.27
2023-04-14T09:25:56.296Z,14.51
2023-04-14T09:26:56.230Z,14.92
2023-04-14T09:27:56.164Z,15.21
2023-04-14T09:28:56.103Z,15.34
2023-04-14T09:29:56.119Z,15.49
2023-04-14T09:30:55.998Z,15.54
2023-04-14T09:31:55.948Z,15.44
2023-04-14T09:32:55.937Z,15.41
2023-04-14T09:33:55.910Z,15.27
2023-04-14T09:34:57.752Z,15.06
2023-04-14T09:35:55.705Z,14.89
2023-04-14T09:36:55.656Z,14.46
2023-04-14T09:37:55.587Z,14.28
2023-04-14T09:38:55.518Z,14.22
2023-04-14T09:39:55.485Z,14.24
2023-04-14T09:40:57.065Z,14.10
2023-04-14T09:41:55.365Z,14.09
2023-04-14T09:42:55.260Z,14.14
2023-04-14T09:43:55.201Z,14.25
2023-04-14T09:44:55.148Z,14.28
2023-04-14T09:45:55.075Z,14.17
2023-04-14T09:46:55.697Z,14.40
2023-04-14T09:47:54.974Z,14.78
2023-04-14T09:48:54.925Z,15.09
2023-04-14T09:49:54.824Z,15.47
2023-04-14T09:50:54.765Z,15.86
2023-04-14T09:51:54.716Z,16.09
2023-04-14T09:52:54.671Z,16.28
2023-04-14T09:53:54.618Z,16.23
2023-04-14T09:54:54.496Z,15.78
2023-04-14T09:55:54.432Z,15.35
2023-04-14T09:56:54.433Z,15.11
2023-04-14T09:57:54.308Z,15.02
2023-04-14T09:58:54.270Z,14.91
2023-04-14T09:59:54.224Z,14.81
2023-04-14T10:00:54.170Z,14.72
2023-04-14T10:01:54.204Z,14.65
2023-04-14T10:02:54.142Z,14.68
2023-04-14T10:03:53.961Z,14.81
2023-04-14T10:04:53.948Z,15.01
2023-04-14T10:05:53.826Z,15.19
2023-04-14T10:06:53.781Z,15.31
2023-04-14T10:07:53.691Z,15.32
2023-04-14T10:08:53.684Z,15.43
2023-04-14T10:09:53.595Z,15.64
2023-04-14T10:10:53.531Z,15.82
2023-04-14T10:11:53.484Z,15.94
2023-04-14T10:12:53.390Z,16.08
2023-04-14T10:13:53.373Z,16.21
2023-04-14T10:14:53.297Z,16.25
2023-04-14T10:15:53.369Z,16.24
2023-04-14T10:16:53.144Z,16.08
2023-04-14T10:17:53.126Z,16.11
2023-04-14T10:18:53.043Z,16.04
2023-04-14T10:19:53.025Z,15.65
2023-04-14T10:20:52.892Z,15.47
2023-04-14T10:21:52.826Z,15.06
2023-04-14T10:22:52.796Z,14.88
2023-04-14T10:23:52.778Z,14.73
2023-04-14T10:24:52.693Z,14.72
2023-04-14T10:25:52.614Z,14.69
2023-04-14T10:26:52.542Z,14.77
2023-04-14T10:27:52.465Z,14.98
2023-04-14T10:28:52.459Z,15.17
2023-04-14T10:29:52.450Z,15.36
2023-04-14T10:30:52.322Z,15.56
2023-04-14T10:31:52.219Z,15.60
2023-04-14T10:32:52.237Z,15.60
2023-04-14T10:33:52.123Z,15.47
2023-04-14T10:34:52.030Z,15.51
2023-04-14T10:35:52.011Z,15.68
2023-04-14T10:36:51.930Z,15.83
2023-04-14T10:37:51.876Z,15.96
2023-04-14T10:38:51.814Z,15.92
2023-04-14T10:39:51.770Z,15.75
2023-04-14T10:40:51.656Z,15.72
2023-04-14T10:41:51.609Z,15.97
2023-04-14T10:42:51.548Z,16.30
2023-04-14T10:43:51.496Z,16.60
2023-04-14T10:44:51.462Z,16.71
2023-04-14T10:45:51.373Z,16.85
2023-04-14T10:46:51.387Z,17.11
2023-04-14T10:47:51.310Z,17.21
2023-04-14T10:48:51.188Z,17.22
2023-04-14T10:49:51.159Z,17.03
2023-04-14T10:50:51.064Z,16.53
2023-04-14T10:51:51.083Z,16.09
2023-04-14T10:52:50.930Z,15.76
2023-04-14T10:53:50.866Z,15.62
2023-04-14T10:54:50.823Z,15.57
2023-04-14T10:55:52.436Z,15.59
2023-04-14T10:56:50.718Z,15.60
2023-04-14T10:57:50.674Z,15.54
2023-04-14T10:58:50.552Z,15.47
2023-04-14T10:59:50.508Z,15.38
2023-04-14T11:00:50.529Z,15.36
2023-04-14T11:01:50.450Z,15.38
2023-04-14T11:02:50.400Z,15.38
2023-04-14T11:03:50.542Z,15.41
2023-04-14T11:04:50.272Z,15.34
2023-04-14T11:05:50.152Z,15.17
2023-04-14T11:06:50.112Z,14.99
2023-04-14T11:07:50.016Z,14.89
2023-04-14T11:08:49.960Z,14.92
2023-04-14T11:09:49.906Z,15.01
2023-04-14T11:10:49.810Z,15.10
2023-04-14T11:11:49.792Z,15.17
2023-04-14T11:12:49.719Z,15.27
2023-04-14T11:13:49.635Z,15.34
2023-04-14T11:14:49.611Z,15.32
2023-04-14T11:15:49.566Z,15.34
2023-04-14T11:17:02.449Z,15.32
2023-04-14T11:17:49.610Z,15.31
2023-04-14T11:18:49.336Z,15.27
2023-04-14T11:19:49.248Z,15.19
2023-04-14T11:20:49.204Z,15.20
2023-04-14T11:21:49.149Z,15.19
2023-04-14T11:22:49.095Z,15.29
2023-04-14T11:23:49.088Z,15.23
2023-04-14T11:24:49.014Z,15.13
2023-04-14T11:25:48.884Z,15.14
2023-04-14T11:26:48.835Z,15.19
2023-04-14T11:27:48.787Z,15.23
2023-04-14T11:28:48.718Z,15.25
2023-04-14T11:29:48.929Z,15.31
2023-04-14T11:30:48.585Z,15.31
2023-04-14T11:31:48.564Z,15.36
2023-04-14T11:32:48.513Z,15.36
2023-04-14T11:33:48.415Z,15.35
2023-04-14T11:34:48.337Z,15.35
2023-04-14T11:35:48.307Z,15.39
2023-04-14T11:36:48.237Z,15.34
2023-04-14T11:37:48.188Z,15.29
2023-04-14T11:38:48.092Z,15.25
2023-04-14T11:39:48.032Z,15.17
2023-04-14T11:40:47.943Z,15.10
2023-04-14T11:41:47.924Z,15.02
2023-04-14T11:42:47.877Z,14.98
2023-04-14T11:43:47.821Z,14.99
2023-04-14T11:44:47.728Z,15.01
2023-04-14T11:45:47.752Z,15.03
2023-04-14T11:46:47.576Z,15.06
2023-04-14T11:48:22.206Z,15.09
2023-04-14T11:48:47.444Z,15.03
2023-04-14T11:49:47.380Z,14.99
2023-04-14T11:50:47.358Z,14.98
2023-04-14T11:51:47.289Z,15.02
2023-04-14T11:52:47.249Z,15.07
2023-04-14T11:53:47.166Z,15.16
2023-04-14T11:54:47.168Z,15.23
2023-04-14T11:55:47.009Z,15.23
2023-04-14T11:56:46.984Z,15.27
2023-04-14T11:57:46.915Z,15.29
2023-04-14T11:58:46.849Z,15.29
2023-04-14T11:59:46.830Z,15.32
2023-04-14T12:00:46.731Z,15.39
2023-04-14T12:01:46.686Z,15.41
2023-04-14T12:02:46.778Z,15.35
2023-04-14T12:03:46.723Z,15.53
2023-04-14T12:04:46.698Z,15.74
2023-04-14T12:05:46.491Z,15.92
2023-04-14T12:06:46.392Z,16.12
2023-04-14T12:07:46.266Z,16.33
2023-04-14T12:08:46.233Z,16.56
2023-04-14T12:09:46.185Z,16.70
2023-04-14T12:10:46.117Z,16.88
2023-04-14T12:11:46.066Z,17.03
2023-04-14T12:12:45.991Z,17.15
2023-04-14T12:13:45.918Z,17.14
2023-04-14T12:14:45.889Z,17.23
2023-04-14T12:15:45.903Z,17.36
2023-04-14T12:16:45.760Z,17.36
2023-04-14T12:17:45.729Z,17.43
2023-04-14T12:18:45.597Z,17.48
2023-04-14T12:19:45.581Z,17.21
2023-04-14T12:20:45.485Z,17.08
2023-04-14T12:21:45.438Z,17.08
2023-04-14T12:22:45.359Z,17.11
2023-04-14T12:24:19.962Z,16.94
2023-04-14T12:24:45.214Z,16.96
2023-04-14T12:25:45.373Z,17.04
2023-04-14T12:26:45.136Z,17.07
2023-04-14T12:27:45.077Z,17.16
2023-04-14T12:28:45.036Z,17.25
2023-04-14T12:29:44.937Z,17.22
2023-04-14T12:30:44.870Z,17.16
2023-04-14T12:31:44.937Z,17.21
2023-04-14T12:32:44.742Z,17.25
2023-04-14T12:33:44.652Z,17.31
2023-04-14T12:34:44.622Z,17.25
2023-04-14T12:35:44.553Z,17.22
2023-04-14T12:36:50.015Z,17.18
2023-04-14T12:37:44.432Z,16.94
2023-04-14T12:38:44.340Z,16.70
2023-04-14T12:39:44.308Z,16.43
2023-04-14T12:40:44.250Z,16.30
2023-04-14T12:42:01.617Z,16.25
2023-04-14T12:42:44.147Z,16.27
2023-04-14T12:43:44.035Z,16.34
2023-04-14T12:44:43.993Z,16.42
2023-04-14T12:45:43.943Z,16.52
2023-04-14T12:46:43.948Z,16.70
2023-04-14T12:47:43.887Z,16.89
2023-04-14T12:48:43.807Z,16.89
2023-04-14T12:49:43.685Z,16.78
2023-04-14T12:50:43.645Z,16.75
2023-04-14T12:51:43.568Z,16.64
2023-04-14T12:52:43.509Z,16.63
2023-04-14T12:53:43.472Z,16.39
2023-04-14T12:54:43.382Z,16.12
2023-04-14T12:55:43.319Z,16.00
2023-04-14T12:56:43.285Z,15.96
2023-04-14T12:57:43.247Z,15.94
2023-04-14T12:58:43.146Z,15.93
2023-04-14T12:59:43.083Z,15.87
2023-04-14T13:00:43.053Z,15.84
2023-04-14T13:01:42.955Z,15.84
2023-04-14T13:02:44.754Z,15.75
2023-04-14T13:03:43.139Z,15.71
2023-04-14T13:04:42.783Z,15.71
2023-04-14T13:05:42.729Z,15.71
2023-04-14T13:06:42.669Z,15.71
2023-04-14T13:07:42.608Z,15.72
2023-04-14T13:08:42.544Z,15.75
2023-04-14T13:09:42.465Z,15.72
2023-04-14T13:10:42.416Z,15.75
2023-04-14T13:11:42.349Z,15.83
2023-04-14T13:12:42.266Z,15.89
2023-04-14T13:13:42.213Z,15.96
2023-04-14T13:14:42.173Z,16.04
2023-04-14T13:16:13.859Z,16.05
2023-04-14T13:16:42.086Z,16.11
2023-04-14T13:17:59.422Z,16.21
2023-04-14T13:18:41.893Z,16.23
2023-04-14T13:19:41.862Z,16.04
2023-04-14T13:20:41.792Z,15.84
2023-04-14T13:21:41.728Z,15.75
2023-04-14T13:22:41.677Z,15.71
2023-04-14T13:23:41.750Z,15.72
2023-04-14T13:24:41.536Z,15.82
2023-04-14T13:25:41.476Z,15.86
2023-04-14T13:26:41.414Z,15.89
2023-04-14T13:27:41.349Z,15.84
2023-04-14T13:28:41.321Z,15.80
2023-04-14T13:29:42.348Z,15.76
2023-04-14T13:30:41.129Z,15.65
2023-04-14T13:31:41.227Z,15.43
2023-04-14T13:32:41.038Z,15.34
2023-04-14T13:33:40.967Z,15.39
2023-04-14T13:34:40.953Z,15.44
2023-04-14T13:35:40.875Z,15.50
2023-04-14T13:36:40.778Z,15.59
2023-04-14T13:37:40.690Z,15.71
2023-04-14T13:38:40.814Z,15.72
2023-04-14T13:39:40.609Z,15.72
2023-04-14T13:40:40.535Z,15.75
2023-04-14T13:41:40.534Z,15.78
2023-04-14T13:42:40.437Z,15.83
2023-04-14T13:43:40.323Z,15.89
2023-04-14T13:44:40.278Z,15.92
2023-04-14T13:45:40.232Z,16.00
2023-04-14T13:46:41.548Z,16.05